createdAt,value
2022-08-23T00:01:40.483Z,69.80
2022-08-23T00:04:13.166Z,69.90
2022-08-23T00:06:44.469Z,69.90
2022-08-23T00:09:14.584Z,70.10
2022-08-23T00:11:45.795Z,70.10
2022-08-23T00:14:17.970Z,70.20
2022-08-23T00:16:47.933Z,70.20
2022-08-23T00:19:20.015Z,70.30
2022-08-23T00:21:51.789Z,70.40
2022-08-23T00:24:21.333Z,70.50
2022-08-23T00:27:02.225Z,70.40
2022-08-23T00:29:34.178Z,70.60
2022-08-23T00:32:03.955Z,70.60
2022-08-23T00:34:33.207Z,70.60
2022-08-23T00:37:04.318Z,70.80
2022-08-23T00:39:33.600Z,70.80
2022-08-23T00:42:28.561Z,70.80
2022-08-23T00:45:16.032Z,70.90
2022-08-23T00:47:46.391Z,71.00
2022-08-23T00:50:24.151Z,71.00
2022-08-23T00:53:03.949Z,71.00
2022-08-23T00:55:34.448Z,71.10
2022-08-23T00:58:04.634Z,71.30
2022-08-23T01:00:34.386Z,71.40
2022-08-23T01:03:05.451Z,71.40
2022-08-23T01:05:46.595Z,71.40
2022-08-23T01:08:18.157Z,71.50
2022-08-23T01:10:51.249Z,71.50
2022-08-23T01:13:30.971Z,71.50
2022-08-23T01:16:05.641Z,71.60
2022-08-23T01:18:35.838Z,71.60
2022-08-23T01:21:11.002Z,71.60
2022-08-23T01:23:45.051Z,71.60
2022-08-23T01:26:21.724Z,71.70
2022-08-23T01:28:53.563Z,71.80
2022-08-23T01:31:24.463Z,71.70
2022-08-23T01:33:59.201Z,71.70
2022-08-23T01:36:29.331Z,71.80
2022-08-23T01:39:00.189Z,71.90
2022-08-23T01:41:29.799Z,72.00
2022-08-23T01:43:59.021Z,71.90
2022-08-23T01:46:30.163Z,71.90
2022-08-23T01:49:00.142Z,72.00
2022-08-23T01:51:32.751Z,72.10
2022-08-23T01:54:03.364Z,72.20
2022-08-23T01:56:38.147Z,72.10
2022-08-23T01:59:11.680Z,72.20
2022-08-23T02:01:50.002Z,72.20
2022-08-23T02:04:19.889Z,72.20
2022-08-23T02:06:49.160Z,72.20
2022-08-23T02:09:25.531Z,72.20
2022-08-23T02:11:58.881Z,72.20
2022-08-23T02:14:28.085Z,72.10
2022-08-23T02:17:03.622Z,73.20
2022-08-23T02:19:38.210Z,72.40
2022-08-23T02:22:09.211Z,72.50
2022-08-23T02:24:44.724Z,72.50
2022-08-23T02:27:15.941Z,72.60
2022-08-23T02:29:47.492Z,72.40
2022-08-23T02:32:19.801Z,72.50
2022-08-23T02:34:51.114Z,72.50
2022-08-23T02:37:34.312Z,72.40
2022-08-23T02:40:06.706Z,72.40
2022-08-23T02:42:36.087Z,72.40
2022-08-23T02:45:05.962Z,72.40
2022-08-23T02:47:37.037Z,72.60
2022-08-23T02:50:18.908Z,72.50
2022-08-23T02:52:49.126Z,72.50
2022-08-23T02:55:20.414Z,72.50
2022-08-23T02:57:49.965Z,72.40
2022-08-23T03:00:20.458Z,72.50
2022-08-23T03:02:52.722Z,72.60
2022-08-23T03:05:22.418Z,72.50
2022-08-23T03:07:51.848Z,72.60
2022-08-23T03:10:22.635Z,72.50
2022-08-23T03:12:58.246Z,72.70
2022-08-23T03:15:27.803Z,72.70
2022-08-23T03:17:57.197Z,72.70
2022-08-23T03:20:26.648Z,72.80
2022-08-23T03:22:56.071Z,72.70
2022-08-23T03:25:29.193Z,72.70
2022-08-23T03:28:12.044Z,72.70
2022-08-23T03:30:45.593Z,72.70
2022-08-23T03:33:15.934Z,72.80
2022-08-23T03:35:48.055Z,72.70
2022-08-23T03:38:17.924Z,72.70
2022-08-23T03:40:52.446Z,72.80
2022-08-23T03:43:22.357Z,72.90
2022-08-23T03:45:52.074Z,72.90
2022-08-23T03:48:22.037Z,72.90
2022-08-23T03:50:51.308Z,72.90
2022-08-23T03:53:24.813Z,72.90
2022-08-23T03:55:57.545Z,72.90
2022-08-23T03:58:29.822Z,72.90
2022-08-23T04:00:59.471Z,72.90
2022-08-23T04:03:28.817Z,72.90
2022-08-23T04:06:07.230Z,73.00
2022-08-23T04:08:36.637Z,73.00
2022-08-23T04:11:09.421Z,73.00
2022-08-23T04:13:41.104Z,73.00
2022-08-23T04:16:10.631Z,72.80
2022-08-23T04:18:40.206Z,73.00
2022-08-23T04:21:14.253Z,73.10
2022-08-23T04:23:43.608Z,74.20
2022-08-23T04:26:14.430Z,75.20
2022-08-23T04:28:45.112Z,76.70
2022-08-23T04:31:15.413Z,78.20
2022-08-23T04:33:52.289Z,79.10
2022-08-23T04:36:23.498Z,79.90
2022-08-23T04:38:54.316Z,79.00
2022-08-23T04:41:42.090Z,78.90
2022-08-23T04:44:12.395Z,78.60
2022-08-23T04:46:43.853Z,78.70
2022-08-23T04:49:14.906Z,78.00
2022-08-23T04:51:44.292Z,77.20
2022-08-23T04:54:23.716Z,76.90
2022-08-23T04:57:11.422Z,76.60
2022-08-23T04:59:42.961Z,75.70
2022-08-23T05:02:12.169Z,75.70
2022-08-23T05:04:41.513Z,75.40
2022-08-23T05:07:12.050Z,75.30
2022-08-23T05:09:41.301Z,75.10
2022-08-23T05:12:12.052Z,75.00
2022-08-23T05:14:41.360Z,74.90
2022-08-23T05:17:17.445Z,74.80
2022-08-23T05:19:47.238Z,74.80
2022-08-23T05:22:17.786Z,74.80
2022-08-23T05:25:13.095Z,74.80
2022-08-23T05:27:44.205Z,74.70
2022-08-23T05:30:15.343Z,74.60
2022-08-23T05:32:45.776Z,74.50
2022-08-23T05:35:15.474Z,74.80
2022-08-23T05:37:47.076Z,74.90
2022-08-23T05:40:18.584Z,75.00
2022-08-23T05:43:03.084Z,74.90
2022-08-23T05:45:32.869Z,74.70
2022-08-23T05:48:04.034Z,74.70
2022-08-23T05:50:55.487Z,74.70
2022-08-23T05:53:25.361Z,74.60
2022-08-23T05:55:54.557Z,74.50
2022-08-23T05:58:28.410Z,74.60
2022-08-23T06:00:57.665Z,74.60
2022-08-23T06:03:27.165Z,74.50
2022-08-23T06:05:59.099Z,74.40
2022-08-23T06:08:28.806Z,75.10
2022-08-23T06:11:02.649Z,74.30
2022-08-23T06:13:41.429Z,74.50
2022-08-23T06:16:14.795Z,74.60
2022-08-23T06:18:47.331Z,74.60
2022-08-23T06:21:45.889Z,74.50
2022-08-23T06:24:16.047Z,74.70
2022-08-23T06:26:54.211Z,74.80
2022-08-23T06:29:24.995Z,74.70
2022-08-23T06:32:14.113Z,74.80
2022-08-23T06:35:14.754Z,74.70
2022-08-23T06:38:06.835Z,74.80
2022-08-23T06:41:11.514Z,74.80
2022-08-23T06:44:02.754Z,74.70
2022-08-23T06:46:38.598Z,74.70
2022-08-23T06:49:08.920Z,74.60
2022-08-23T06:51:40.424Z,74.70
2022-08-23T06:54:23.691Z,74.60
2022-08-23T06:57:23.101Z,74.50
2022-08-23T07:00:12.320Z,74.60
2022-08-23T07:03:13.696Z,74.50
2022-08-23T07:06:01.812Z,74.40
2022-08-23T07:08:34.152Z,74.50
2022-08-23T07:11:03.596Z,74.50
2022-08-23T07:13:33.298Z,74.50
2022-08-23T07:16:04.010Z,74.50
2022-08-23T07:18:36.424Z,74.40
2022-08-23T07:21:06.858Z,74.40
2022-08-23T07:23:37.793Z,74.50
2022-08-23T07:26:12.911Z,74.50
2022-08-23T07:28:43.127Z,74.40
2022-08-23T07:31:16.711Z,74.50
2022-08-23T07:33:48.023Z,74.40
2022-08-23T07:36:24.271Z,74.40
2022-08-23T07:38:55.230Z,74.30
2022-08-23T07:41:26.242Z,74.40
2022-08-23T07:43:56.037Z,74.40
2022-08-23T07:46:26.384Z,74.40
2022-08-23T07:48:58.938Z,74.50
2022-08-23T07:51:35.514Z,74.50
2022-08-23T07:54:07.468Z,74.30
2022-08-23T07:56:41.888Z,74.80
2022-08-23T07:59:20.177Z,74.40
2022-08-23T08:02:08.122Z,74.40
2022-08-23T08:04:40.901Z,74.50
2022-08-23T08:07:19.390Z,74.40
2022-08-23T08:09:52.619Z,74.50
2022-08-23T08:12:23.252Z,74.30
2022-08-23T08:14:55.335Z,74.40
2022-08-23T08:17:35.314Z,74.40
2022-08-23T08:20:22.169Z,74.30
2022-08-23T08:23:09.855Z,74.30
2022-08-23T08:26:02.732Z,74.40
2022-08-23T08:28:33.081Z,74.40
2022-08-23T08:31:03.037Z,74.40
2022-08-23T08:33:34.348Z,74.40
2022-08-23T08:36:07.664Z,74.30
2022-08-23T08:38:48.017Z,74.30
2022-08-23T08:41:26.973Z,74.40
2022-08-23T08:44:04.274Z,74.40
2022-08-23T08:46:45.592Z,74.40
2022-08-23T08:49:21.215Z,74.50
2022-08-23T08:51:58.040Z,74.50
2022-08-23T08:54:30.543Z,74.50
2022-08-23T08:57:02.477Z,74.50
2022-08-23T08:59:46.288Z,74.60
2022-08-23T09:02:32.323Z,74.50
2022-08-23T09:05:12.346Z,74.60
2022-08-23T09:07:53.979Z,74.60
2022-08-23T09:10:51.588Z,74.60
2022-08-23T09:13:53.970Z,74.60
2022-08-23T09:16:40.825Z,74.70
2022-08-23T09:19:10.968Z,74.70
2022-08-23T09:21:47.073Z,74.70
2022-08-23T09:24:18.443Z,74.70
2022-08-23T09:26:57.758Z,74.70
2022-08-23T09:29:30.576Z,74.60
2022-08-23T09:32:02.645Z,74.70
2022-08-23T09:34:45.512Z,74.60
2022-08-23T09:37:20.801Z,74.60
2022-08-23T09:40:14.229Z,74.70
2022-08-23T09:42:43.921Z,74.60
2022-08-23T09:45:31.901Z,74.60
2022-08-23T09:48:05.456Z,74.80
2022-08-23T09:50:42.468Z,74.70
2022-08-23T09:53:14.434Z,74.80
2022-08-23T09:55:52.539Z,74.70
2022-08-23T09:58:28.335Z,74.70
2022-08-23T10:01:12.160Z,74.80
2022-08-23T10:03:43.702Z,74.70
2022-08-23T10:06:34.289Z,74.90
2022-08-23T10:09:09.380Z,74.80
2022-08-23T10:11:46.466Z,74.80
2022-08-23T10:14:18.971Z,74.80
2022-08-23T10:16:58.894Z,74.80
2022-08-23T10:19:32.392Z,74.90
2022-08-23T10:22:05.402Z,74.70
2022-08-23T10:24:42.542Z,74.70
2022-08-23T10:27:49.163Z,74.70
2022-08-23T10:30:22.326Z,74.80
2022-08-23T10:33:04.154Z,74.90
2022-08-23T10:35:41.064Z,74.80
2022-08-23T10:38:37.947Z,74.70
2022-08-23T10:41:31.342Z,74.90
2022-08-23T10:44:11.839Z,74.80
2022-08-23T10:46:51.174Z,74.90
2022-08-23T10:49:21.247Z,75.00
2022-08-23T10:51:52.235Z,75.20
2022-08-23T10:54:35.517Z,75.20
2022-08-23T10:57:09.326Z,75.30
2022-08-23T10:59:40.768Z,75.60
2022-08-23T11:02:20.833Z,75.50
2022-08-23T11:05:06.921Z,75.60
2022-08-23T11:07:41.461Z,75.40
2022-08-23T11:10:18.920Z,75.60
2022-08-23T11:12:56.305Z,75.70
2022-08-23T11:15:41.392Z,75.50
2022-08-23T11:18:38.103Z,75.60
2022-08-23T11:21:12.463Z,75.60
2022-08-23T11:23:55.598Z,75.50
2022-08-23T11:27:06.624Z,75.50
2022-08-23T11:29:43.423Z,75.60
2022-08-23T11:32:46.828Z,75.30
2022-08-23T11:35:38.280Z,75.10
2022-08-23T11:38:14.674Z,75.10
2022-08-23T11:41:22.997Z,75.30
2022-08-23T11:44:24.951Z,75.20
2022-08-23T11:47:02.490Z,75.40
2022-08-23T11:49:57.481Z,75.20
2022-08-23T11:52:47.542Z,75.20
2022-08-23T11:55:36.434Z,75.10
2022-08-23T11:58:19.447Z,75.10
2022-08-23T12:00:57.668Z,74.90
2022-08-23T12:03:34.324Z,74.80
2022-08-23T12:06:34.826Z,74.90
2022-08-23T12:09:14.829Z,74.80
2022-08-23T12:12:24.664Z,74.70
2022-08-23T12:14:56.901Z,74.70
2022-08-23T12:18:11.661Z,74.60
2022-08-23T12:20:48.188Z,74.80
2022-08-23T12:23:22.903Z,74.60
2022-08-23T12:26:11.327Z,74.60
2022-08-23T12:28:48.097Z,74.60
2022-08-23T12:31:29.844Z,74.50
2022-08-23T12:34:16.855Z,74.40
2022-08-23T12:37:07.646Z,74.50
2022-08-23T12:39:48.349Z,74.50
2022-08-23T12:42:20.236Z,75.30
2022-08-23T12:45:02.153Z,74.40
2022-08-23T12:47:32.317Z,74.60
2022-08-23T12:50:03.518Z,74.60
2022-08-23T12:52:36.159Z,74.40
2022-08-23T12:55:14.771Z,74.30
2022-08-23T12:57:46.817Z,74.30
2022-08-23T13:00:23.459Z,74.40
2022-08-23T13:02:59.649Z,74.40
2022-08-23T13:05:38.534Z,74.30
2022-08-23T13:08:11.859Z,74.20
2022-08-23T13:10:45.140Z,74.30
2022-08-23T13:13:17.647Z,74.20
2022-08-23T13:15:54.541Z,74.20
2022-08-23T13:18:33.590Z,74.20
2022-08-23T13:21:27.911Z,74.10
2022-08-23T13:24:00.772Z,74.30
2022-08-23T13:26:41.288Z,74.20
2022-08-23T13:29:14.665Z,74.20
2022-08-23T13:32:03.330Z,74.10
2022-08-23T13:34:35.997Z,74.20
2022-08-23T13:37:16.287Z,74.10
2022-08-23T13:39:50.243Z,74.20
2022-08-23T13:42:33.240Z,74.30
2022-08-23T13:45:09.790Z,74.20
2022-08-23T13:47:39.600Z,74.10
2022-08-23T13:50:18.201Z,74.10
2022-08-23T13:53:11.503Z,74.10
2022-08-23T13:55:43.706Z,74.10
2022-08-23T13:58:18.581Z,74.20
2022-08-23T14:00:55.661Z,74.10
2022-08-23T14:03:25.721Z,74.10
2022-08-23T14:05:55.807Z,74.00
2022-08-23T14:08:25.346Z,74.00
2022-08-23T14:10:54.742Z,74.10
2022-08-23T14:13:28.856Z,74.00
2022-08-23T14:21:41.142Z,74.00
2022-08-23T14:24:10.573Z,74.00
2022-08-23T14:26:50.085Z,74.00
2022-08-23T14:29:23.323Z,74.00
2022-08-23T14:31:53.494Z,74.00
2022-08-23T14:34:23.063Z,74.00
2022-08-23T14:39:43.258Z,73.90
2022-08-23T14:42:14.728Z,74.00
2022-08-23T14:44:45.524Z,74.00
2022-08-23T14:47:15.013Z,74.00
2022-08-23T14:49:44.276Z,74.00
2022-08-23T14:52:15.534Z,74.00
2022-08-23T14:54:44.801Z,74.00
2022-08-23T14:57:14.065Z,74.10
2022-08-23T14:59:44.716Z,74.00
2022-08-23T15:02:23.905Z,74.10
2022-08-23T15:04:53.420Z,74.10
2022-08-23T15:07:23.151Z,74.10
2022-08-23T15:09:55.791Z,74.10
2022-08-23T15:15:22.004Z,74.10
2022-08-23T15:17:54.962Z,74.10
2022-08-23T15:20:31.295Z,74.10
2022-08-23T15:23:01.300Z,74.20
2022-08-23T15:25:33.424Z,74.10
2022-08-23T15:28:03.592Z,74.20
2022-08-23T15:30:36.785Z,74.20
2022-08-23T15:33:06.571Z,74.20
2022-08-23T15:35:41.423Z,74.50
2022-08-23T15:38:12.045Z,74.60
2022-08-23T15:40:41.700Z,74.90
2022-08-23T15:43:11.304Z,75.60
2022-08-23T15:45:42.570Z,76.00
2022-08-23T15:48:17.691Z,76.50
2022-08-23T15:50:48.042Z,76.70
2022-08-23T15:53:17.802Z,76.60
2022-08-23T15:55:48.061Z,76.40
2022-08-23T15:58:20.715Z,76.60
2022-08-23T16:00:52.232Z,76.50
2022-08-23T16:03:23.434Z,76.60
2022-08-23T16:05:55.033Z,76.60
2022-08-23T16:08:28.621Z,76.40
2022-08-23T16:10:58.393Z,76.60
2022-08-23T16:13:28.858Z,76.70
2022-08-23T16:15:59.854Z,76.70
2022-08-23T16:18:29.184Z,76.80
2022-08-23T16:20:58.419Z,76.80
2022-08-23T16:23:27.808Z,76.90
2022-08-23T16:26:01.043Z,76.90
2022-08-23T16:28:31.198Z,76.40
2022-08-23T16:31:01.958Z,76.70
2022-08-23T16:33:31.374Z,76.80
2022-08-23T16:36:00.691Z,76.80
2022-08-23T16:38:30.695Z,76.80
2022-08-23T16:41:00.139Z,76.80
2022-08-23T16:43:29.993Z,77.30
2022-08-23T16:45:59.518Z,77.10
2022-08-23T16:48:30.794Z,76.70
2022-08-23T16:51:00.268Z,76.20
2022-08-23T16:53:29.617Z,75.80
2022-08-23T16:55:58.875Z,75.50
2022-08-23T16:58:28.859Z,75.50
2022-08-23T17:00:58.231Z,75.90
2022-08-23T17:03:29.301Z,77.30
2022-08-23T17:05:58.532Z,77.60
2022-08-23T17:08:28.996Z,77.40
2022-08-23T17:11:03.056Z,76.70
2022-08-23T17:13:33.566Z,76.00
2022-08-23T17:16:02.847Z,75.20
2022-08-23T17:18:33.756Z,74.70
2022-08-23T17:21:03.187Z,75.30
2022-08-23T17:23:32.509Z,75.60
2022-08-23T17:26:02.380Z,75.60
2022-08-23T17:28:31.782Z,75.50
2022-08-23T17:31:02.216Z,75.10
2022-08-23T17:33:33.097Z,75.00
2022-08-23T17:36:03.234Z,75.10
2022-08-23T17:38:33.022Z,75.10
2022-08-23T17:41:04.493Z,75.10
2022-08-23T17:43:34.256Z,75.00
2022-08-23T17:46:03.663Z,74.90
2022-08-23T17:48:34.516Z,74.90
2022-08-23T17:51:03.966Z,74.90
2022-08-23T17:53:33.370Z,75.00
2022-08-23T17:56:03.056Z,75.00
2022-08-23T17:58:35.303Z,75.10
2022-08-23T18:01:05.038Z,75.00
2022-08-23T18:03:36.128Z,75.20
2022-08-23T18:06:16.319Z,74.80
2022-08-23T18:08:48.041Z,74.70
2022-08-23T18:11:19.620Z,74.60
2022-08-23T18:13:50.280Z,74.50
2022-08-23T18:16:19.901Z,74.80
2022-08-23T18:18:50.883Z,74.10
2022-08-23T18:21:20.904Z,73.90
2022-08-23T18:23:50.854Z,73.70
2022-08-23T18:26:38.525Z,73.60
2022-08-23T18:29:14.656Z,73.70
2022-08-23T18:31:45.982Z,73.60
2022-08-23T18:34:17.567Z,73.60
2022-08-23T18:36:47.213Z,74.10
2022-08-23T18:39:17.290Z,74.40
2022-08-23T18:42:02.232Z,75.30
2022-08-23T18:44:32.400Z,75.70
2022-08-23T18:47:03.600Z,75.50
2022-08-23T18:49:35.874Z,75.60
2022-08-23T18:52:06.371Z,76.00
2022-08-23T18:54:35.933Z,76.30
2022-08-23T18:57:05.753Z,76.30
2022-08-23T18:59:35.206Z,76.30
2022-08-23T19:02:05.239Z,76.30
2022-08-23T19:04:36.885Z,76.10
2022-08-23T19:07:08.641Z,76.30
2022-08-23T19:09:38.516Z,76.60
2022-08-23T19:12:08.549Z,76.60
2022-08-23T19:14:38.098Z,76.80
2022-08-23T19:17:09.768Z,77.30
2022-08-23T19:19:40.472Z,77.10
2022-08-23T19:22:10.609Z,76.90
2022-08-23T19:24:41.633Z,76.90
2022-08-23T19:27:11.197Z,76.80
2022-08-23T19:29:40.511Z,76.90
2022-08-23T19:32:09.856Z,75.70
2022-08-23T19:34:41.069Z,76.10
2022-08-23T19:37:20.665Z,73.80
2022-08-23T19:39:52.818Z,72.60
2022-08-23T19:42:22.030Z,72.30
2022-08-23T19:44:51.356Z,71.90
2022-08-23T19:47:26.579Z,71.40
2022-08-23T19:49:59.556Z,71.70
2022-08-23T19:52:29.073Z,71.80
2022-08-23T19:55:05.226Z,71.20
2022-08-23T19:57:36.259Z,71.60
2022-08-23T20:00:13.536Z,71.40
2022-08-23T20:02:45.485Z,71.60
2022-08-23T20:05:16.921Z,72.20
2022-08-23T20:07:47.082Z,72.30
2022-08-23T20:10:18.440Z,72.70
2022-08-23T20:12:47.687Z,72.50
2022-08-23T20:15:17.116Z,72.40
2022-08-23T20:17:46.468Z,72.10
2022-08-23T20:20:17.127Z,71.90
2022-08-23T20:23:04.263Z,72.60
2022-08-23T20:25:33.922Z,72.90
2022-08-23T20:28:07.610Z,72.50
2022-08-23T20:30:37.805Z,72.40
2022-08-23T20:33:07.183Z,72.00
2022-08-23T20:35:38.045Z,72.40
2022-08-23T20:38:07.398Z,72.70
2022-08-23T20:40:36.713Z,72.80
2022-08-23T20:43:05.958Z,72.80
2022-08-23T20:45:36.019Z,72.30
2022-08-23T20:48:08.569Z,72.50
2022-08-23T20:50:41.591Z,73.20
2022-08-23T20:53:12.900Z,73.60
2022-08-23T20:55:42.756Z,73.10
2022-08-23T20:58:11.951Z,72.90
2022-08-23T21:00:41.327Z,72.60
2022-08-23T21:03:10.733Z,72.70
2022-08-23T21:05:41.399Z,72.20
2022-08-23T21:08:12.949Z,72.20
2022-08-23T21:10:45.041Z,72.80
2022-08-23T21:13:14.905Z,73.00
2022-08-23T21:15:44.073Z,74.00
2022-08-23T21:18:13.317Z,74.00
2022-08-23T21:20:44.033Z,73.60
2022-08-23T21:23:13.334Z,73.80
2022-08-23T21:25:42.692Z,73.80
2022-08-23T21:28:12.660Z,74.00
2022-08-23T21:30:42.165Z,74.00
2022-08-23T21:33:11.298Z,73.80
2022-08-23T21:35:40.465Z,73.40
2022-08-23T21:38:11.896Z,73.90
2022-08-23T21:40:41.538Z,73.90
2022-08-23T21:43:10.837Z,73.50
2022-08-23T21:45:41.603Z,73.40
2022-08-23T21:48:12.371Z,73.50
2022-08-23T21:50:41.615Z,73.60
2022-08-23T21:53:12.237Z,74.00
2022-08-23T21:55:41.433Z,74.00
2022-08-23T21:58:11.309Z,74.20
2022-08-23T22:00:42.121Z,74.00
2022-08-23T22:03:11.500Z,74.20
2022-08-23T22:05:41.290Z,74.40
2022-08-23T22:08:14.419Z,74.60
2022-08-23T22:10:57.192Z,74.50
2022-08-23T22:13:28.887Z,74.50
2022-08-23T22:15:58.356Z,74.50
2022-08-23T22:18:27.665Z,75.10
2022-08-23T22:20:58.452Z,74.80
2022-08-23T22:23:30.260Z,74.90
2022-08-23T22:26:00.231Z,74.60
2022-08-23T22:28:32.434Z,75.20
2022-08-23T22:31:03.460Z,75.20
2022-08-23T22:33:33.477Z,74.90
2022-08-23T22:36:07.689Z,75.20
2022-08-23T22:38:38.905Z,75.50
2022-08-23T22:41:08.112Z,75.50
2022-08-23T22:43:37.462Z,75.90
2022-08-23T22:46:07.013Z,76.70
2022-08-23T22:48:36.320Z,75.70
2022-08-23T22:51:07.888Z,75.90
2022-08-23T22:53:40.479Z,75.70
2022-08-23T22:56:12.895Z,75.90
2022-08-23T22:58:42.380Z,76.00
2022-08-23T23:01:19.053Z,76.10
2022-08-23T23:03:49.169Z,76.20
2022-08-23T23:06:20.680Z,76.00
2022-08-23T23:08:52.055Z,75.80
2022-08-23T23:11:22.327Z,76.10
2022-08-23T23:13:52.208Z,75.40
2022-08-23T23:16:23.675Z,75.20
2022-08-23T23:19:07.322Z,74.90
2022-08-23T23:21:41.348Z,74.90
2022-08-23T23:24:13.051Z,75.30
2022-08-23T23:26:42.507Z,75.00
2022-08-23T23:29:16.928Z,74.70
2022-08-23T23:31:46.747Z,74.20
2022-08-23T23:34:16.193Z,74.30
2022-08-23T23:36:45.550Z,74.20
2022-08-23T23:39:17.617Z,74.30
2022-08-23T23:41:46.761Z,74.50
2022-08-23T23:44:16.548Z,74.90
2022-08-23T23:46:53.514Z,75.30
2022-08-23T23:49:23.653Z,75.20
2022-08-23T23:52:03.374Z,75.70
2022-08-23T23:54:35.855Z,76.00
2022-08-23T23:57:06.424Z,76.00
2022-08-23T23:59:36.573Z,75.60
